sensor_id;sensor_type;location;lat;lon;timestamp;pressure;altitude;pressure_sealevel;temperature;humidity
13709;BME280;54933;51.908;7.730;2023-09-12T00:01:26;100703.81;;;24.59;93.50
13709;BME280;54933;51.908;7.730;2023-09-12T00:03:51;100730.75;;;24.61;93.61
13709;BME280;54933;51.908;7.730;2023-09-12T00:06:16;100722.59;;;24.61;93.54
13709;BME280;54933;51.908;7.730;2023-09-12T00:08:42;100723.69;;;24.60;93.51
13709;BME280;54933;51.908;7.730;2023-09-12T00:11:09;100716.38;;;24.60;93.49
13709;BME280;54933;51.908;7.730;2023-09-12T00:13:37;100693.78;;;24.60;93.41
13709;BME280;54933;51.908;7.730;2023-09-12T00:16:03;100665.78;;;24.59;93.54
13709;BME280;54933;51.908;7.730;2023-09-12T00:18:28;100653.03;;;24.60;93.41
13709;BME280;54933;51.908;7.730;2023-09-12T00:20:54;100653.03;;;24.60;93.59
13709;BME280;54933;51.908;7.730;2023-09-12T00:23:21;100656.59;;;24.60;93.34
13709;BME280;54933;51.908;7.730;2023-09-12T00:25:46;100662.81;;;24.61;92.88
13709;BME280;54933;51.908;7.730;2023-09-12T00:28:11;100662.81;;;24.61;93.53
13709;BME280;54933;51.908;7.730;2023-09-12T00:30:37;100658.47;;;24.60;93.75
13709;BME280;54933;51.908;7.730;2023-09-12T00:33:02;100659.31;;;24.60;93.45
13709;BME280;54933;51.908;7.730;2023-09-12T00:35:27;100671.22;;;24.59;93.25
13709;BME280;54933;51.908;7.730;2023-09-12T00:37:53;100661.19;;;24.60;93.56
13709;BME280;54933;51.908;7.730;2023-09-12T00:40:18;100662.22;;;24.59;93.48
13709;BME280;54933;51.908;7.730;2023-09-12T00:42:43;100654.31;;;24.57;93.60
13709;BME280;54933;51.908;7.730;2023-09-12T00:45:09;100647.00;;;24.58;93.68
13709;BME280;54933;51.908;7.730;2023-09-12T00:47:34;100639.09;;;24.56;93.72
13709;BME280;54933;51.908;7.730;2023-09-12T00:50:02;100635.31;;;24.57;94.03
13709;BME280;54933;51.908;7.730;2023-09-12T00:52:29;100626.59;;;24.55;93.87
13709;BME280;54933;51.908;7.730;2023-09-12T00:54:56;100632.84;;;24.56;93.88
13709;BME280;54933;51.908;7.730;2023-09-12T00:57:21;100632.84;;;24.56;94.03
13709;BME280;54933;51.908;7.730;2023-09-12T00:59:48;100644.78;;;24.55;94.04
13709;BME280;54933;51.908;7.730;2023-09-12T01:02:14;100647.50;;;24.55;93.69
13709;BME280;54933;51.908;7.730;2023-09-12T01:04:40;100659.19;;;24.55;93.74
13709;BME280;54933;51.908;7.730;2023-09-12T01:07:06;100677.38;;;24.55;93.92
13709;BME280;54933;51.908;7.730;2023-09-12T01:09:32;100669.25;;;24.55;94.00
13709;BME280;54933;51.908;7.730;2023-09-12T01:11:59;100662.16;;;24.54;93.92
13709;BME280;54933;51.908;7.730;2023-09-12T01:14:24;100658.38;;;24.55;93.81
13709;BME280;54933;51.908;7.730;2023-09-12T01:16:50;100657.53;;;24.54;94.08
13709;BME280;54933;51.908;7.730;2023-09-12T01:19:15;100651.31;;;24.54;93.98
13709;BME280;54933;51.908;7.730;2023-09-12T01:22:04;100662.16;;;24.54;93.89
13709;BME280;54933;51.908;7.730;2023-09-12T01:27:22;100695.56;;;24.54;94.00
13709;BME280;54933;51.908;7.730;2023-09-12T01:29:53;100768.69;;;24.56;93.93
13709;BME280;54933;51.908;7.730;2023-09-12T01:32:21;100806.72;;;24.56;93.70
13709;BME280;54933;51.908;7.730;2023-09-12T01:34:46;100818.66;;;24.55;93.90
13709;BME280;54933;51.908;7.730;2023-09-12T01:37:12;100815.13;;;24.54;93.70
13709;BME280;54933;51.908;7.730;2023-09-12T01:39:37;100780.88;;;24.53;93.77
13709;BME280;54933;51.908;7.730;2023-09-12T01:42:03;100740.97;;;24.54;93.95
13709;BME280;54933;51.908;7.730;2023-09-12T01:44:30;100727.38;;;24.54;93.64
13709;BME280;54933;51.908;7.730;2023-09-12T01:46:57;100744.47;;;24.54;93.84
13709;BME280;54933;51.908;7.730;2023-09-12T01:49:27;100718.13;;;24.55;93.88
13709;BME280;54933;51.908;7.730;2023-09-12T01:51:53;100720.63;;;24.56;93.77
13709;BME280;54933;51.908;7.730;2023-09-12T01:54:20;100714.34;;;24.56;93.80
13709;BME280;54933;51.908;7.730;2023-09-12T01:56:46;100687.19;;;24.56;93.55
13709;BME280;54933;51.908;7.730;2023-09-12T01:59:13;100622.22;;;24.54;93.78
13709;BME280;54933;51.908;7.730;2023-09-12T02:01:38;100558.94;;;24.54;93.59
13709;BME280;54933;51.908;7.730;2023-09-12T02:04:03;100538.00;;;24.54;93.67
13709;BME280;54933;51.908;7.730;2023-09-12T02:06:33;100563.03;;;24.56;93.61
13709;BME280;54933;51.908;7.730;2023-09-12T02:08:59;100591.84;;;24.57;93.50
13709;BME280;54933;51.908;7.730;2023-09-12T02:11:26;100593.75;;;24.57;93.39
13709;BME280;54933;51.908;7.730;2023-09-12T02:13:51;100612.78;;;24.57;93.11
13709;BME280;54933;51.908;7.730;2023-09-12T02:16:16;100611.94;;;24.56;93.31
13709;BME280;54933;51.908;7.730;2023-09-12T02:18:42;100594.81;;;24.56;93.45
13709;BME280;54933;51.908;7.730;2023-09-12T02:21:07;100601.91;;;24.57;93.42
13709;BME280;54933;51.908;7.730;2023-09-12T02:23:32;100607.34;;;24.57;93.46
13709;BME280;54933;51.908;7.730;2023-09-12T02:25:58;100598.34;;;24.56;93.12
13709;BME280;54933;51.908;7.730;2023-09-12T02:28:23;100590.19;;;24.56;93.62
13709;BME280;54933;51.908;7.730;2023-09-12T02:30:48;100582.88;;;24.57;93.22
13709;BME280;54933;51.908;7.730;2023-09-12T02:33:13;100578.50;;;24.56;93.51
13709;BME280;54933;51.908;7.730;2023-09-12T02:35:39;100608.13;;;24.57;93.51
13709;BME280;54933;51.908;7.730;2023-09-12T02:38:04;100612.78;;;24.57;93.33
13709;BME280;54933;51.908;7.730;2023-09-12T02:40:29;100630.72;;;24.58;93.39
13709;BME280;54933;51.908;7.730;2023-09-12T02:42:55;100661.69;;;24.57;93.49
13709;BME280;54933;51.908;7.730;2023-09-12T02:45:20;100651.84;;;24.56;93.41
13709;BME280;54933;51.908;7.730;2023-09-12T02:47:45;100625.75;;;24.55;93.48
13709;BME280;54933;51.908;7.730;2023-09-12T02:50:11;100609.47;;;24.55;93.65
13709;BME280;54933;51.908;7.730;2023-09-12T02:52:36;100639.34;;;24.55;93.58
13709;BME280;54933;51.908;7.730;2023-09-12T02:55:02;100671.94;;;24.55;93.62
13709;BME280;54933;51.908;7.730;2023-09-12T02:57:27;100730.66;;;24.56;93.72
13709;BME280;54933;51.908;7.730;2023-09-12T02:59:53;100684.94;;;24.53;93.88
13709;BME280;54933;51.908;7.730;2023-09-12T03:02:18;100715.66;;;24.53;93.74
13709;BME280;54933;51.908;7.730;2023-09-12T03:04:43;100709.41;;;24.53;93.68
13709;BME280;54933;51.908;7.730;2023-09-12T03:07:09;100688.75;;;24.52;93.92
13709;BME280;54933;51.908;7.730;2023-09-12T03:09:34;100687.66;;;24.53;93.89
13709;BME280;54933;51.908;7.730;2023-09-12T03:12:02;100635.22;;;24.52;93.58
13709;BME280;54933;51.908;7.730;2023-09-12T03:14:28;100598.25;;;24.51;93.70
13709;BME280;54933;51.908;7.730;2023-09-12T03:16:53;100566.75;;;24.50;93.81
13709;BME280;54933;51.908;7.730;2023-09-12T03:19:19;100559.38;;;24.51;93.62
13709;BME280;54933;51.908;7.730;2023-09-12T03:21:44;100571.94;;;24.52;93.84
13709;BME280;54933;51.908;7.730;2023-09-12T03:24:09;100602.59;;;24.52;93.80
13709;BME280;54933;51.908;7.730;2023-09-12T03:26:35;100598.25;;;24.51;93.65
13709;BME280;54933;51.908;7.730;2023-09-12T03:29:02;100586.56;;;24.51;93.90
13709;BME280;54933;51.908;7.730;2023-09-12T03:31:27;100596.63;;;24.50;94.07
13709;BME280;54933;51.908;7.730;2023-09-12T03:33:54;100631.69;;;24.52;93.65
13709;BME280;54933;51.908;7.730;2023-09-12T03:36:19;100675.16;;;24.52;93.71
13709;BME280;54933;51.908;7.730;2023-09-12T03:38:44;100644.69;;;24.50;93.75
13709;BME280;54933;51.908;7.730;2023-09-12T03:41:10;100640.09;;;24.50;93.76
13709;BME280;54933;51.908;7.730;2023-09-12T03:43:36;100656.38;;;24.50;93.77
13709;BME280;54933;51.908;7.730;2023-09-12T03:46:01;100682.13;;;24.48;93.96
13709;BME280;54933;51.908;7.730;2023-09-12T03:48:28;100621.78;;;24.46;93.95
13709;BME280;54933;51.908;7.730;2023-09-12T03:50:55;100690.28;;;24.48;94.02
13709;BME280;54933;51.908;7.730;2023-09-12T03:53:20;100704.09;;;24.46;93.99
13709;BME280;54933;51.908;7.730;2023-09-12T03:55:46;100663.59;;;24.45;94.05
13709;BME280;54933;51.908;7.730;2023-09-12T03:58:11;100664.44;;;24.45;94.07
13709;BME280;54933;51.908;7.730;2023-09-12T04:00:36;100625.56;;;24.45;94.04
13709;BME280;54933;51.908;7.730;2023-09-12T04:03:02;100637.28;;;24.45;93.82
13709;BME280;54933;51.908;7.730;2023-09-12T04:05:27;100646.22;;;24.46;93.97
13709;BME280;54933;51.908;7.730;2023-09-12T04:07:52;100613.06;;;24.44;93.97
13709;BME280;54933;51.908;7.730;2023-09-12T04:10:19;100616.34;;;24.46;93.93
13709;BME280;54933;51.908;7.730;2023-09-12T04:12:45;100601.13;;;24.45;93.94
13709;BME280;54933;51.908;7.730;2023-09-12T04:15:10;100566.66;;;24.45;93.76
13709;BME280;54933;51.908;7.730;2023-09-12T04:17:35;100571.00;;;24.46;93.67
13709;BME280;54933;51.908;7.730;2023-09-12T04:20:01;100544.09;;;24.45;93.70
13709;BME280;54933;51.908;7.730;2023-09-12T04:22:26;100556.03;;;24.44;93.97
13709;BME280;54933;51.908;7.730;2023-09-12T04:24:53;100582.94;;;24.45;93.76
13709;BME280;54933;51.908;7.730;2023-09-12T04:27:18;100603.59;;;24.46;93.68
13709;BME280;54933;51.908;7.730;2023-09-12T04:29:44;100600.63;;;24.48;93.97
13709;BME280;54933;51.908;7.730;2023-09-12T04:32:09;100567.78;;;24.49;93.74
13709;BME280;54933;51.908;7.730;2023-09-12T04:34:35;100538.16;;;24.48;93.64
13709;BME280;54933;51.908;7.730;2023-09-12T04:37:00;100507.22;;;24.49;93.59
13709;BME280;54933;51.908;7.730;2023-09-12T04:39:27;100527.03;;;24.49;93.61
13709;BME280;54933;51.908;7.730;2023-09-12T04:41:53;100521.84;;;24.48;93.59
13709;BME280;54933;51.908;7.730;2023-09-12T04:44:18;100545.25;;;24.49;93.76
13709;BME280;54933;51.908;7.730;2023-09-12T04:46:43;100561.56;;;24.49;93.83
13709;BME280;54933;51.908;7.730;2023-09-12T04:49:09;100567.53;;;24.51;93.61
13709;BME280;54933;51.908;7.730;2023-09-12T04:51:34;100579.00;;;24.53;93.59
13709;BME280;54933;51.908;7.730;2023-09-12T04:53:59;100581.13;;;24.51;93.98
13709;BME280;54933;51.908;7.730;2023-09-12T04:56:25;100568.63;;;24.50;94.21
13709;BME280;54933;51.908;7.730;2023-09-12T04:58:50;100578.66;;;24.49;94.39
13709;BME280;54933;51.908;7.730;2023-09-12T05:01:15;100574.06;;;24.50;94.66
13709;BME280;54933;51.908;7.730;2023-09-12T05:03:41;100592.00;;;24.51;94.83
13709;BME280;54933;51.908;7.730;2023-09-12T05:06:06;100602.84;;;24.51;94.82
13709;BME280;54933;51.908;7.730;2023-09-12T05:08:32;100612.34;;;24.48;94.87
13709;BME280;54933;51.908;7.730;2023-09-12T05:10:57;100619.56;;;24.43;94.89
13709;BME280;54933;51.908;7.730;2023-09-12T05:13:22;100621.31;;;24.49;95.00
13709;BME280;54933;51.908;7.730;2023-09-12T05:15:47;100605.00;;;24.49;95.29
13709;BME280;54933;51.908;7.730;2023-09-12T05:18:13;100591.44;;;24.49;95.57
13709;BME280;54933;51.908;7.730;2023-09-12T05:20:39;100584.81;;;24.45;96.13
13709;BME280;54933;51.908;7.730;2023-09-12T05:23:04;100584.59;;;24.46;95.82
13709;BME280;54933;51.908;7.730;2023-09-12T05:25:29;100579.16;;;24.46;95.91
13709;BME280;54933;51.908;7.730;2023-09-12T05:27:55;100578.31;;;24.46;96.09
13709;BME280;54933;51.908;7.730;2023-09-12T05:30:20;100580.72;;;24.42;96.03
13709;BME280;54933;51.908;7.730;2023-09-12T05:32:46;100572.06;;;24.45;96.31
13709;BME280;54933;51.908;7.730;2023-09-12T05:35:11;100580.81;;;24.47;96.41
13709;BME280;54933;51.908;7.730;2023-09-12T05:37:36;100583.97;;;24.28;95.68
13709;BME280;54933;51.908;7.730;2023-09-12T05:40:02;100582.31;;;24.27;95.94
13709;BME280;54933;51.908;7.730;2023-09-12T05:42:28;100583.59;;;24.36;95.98
13709;BME280;54933;51.908;7.730;2023-09-12T05:44:53;100588.53;;;24.39;95.87
13709;BME280;54933;51.908;7.730;2023-09-12T05:47:19;100592.88;;;24.40;95.44
13709;BME280;54933;51.908;7.730;2023-09-12T05:49:44;100594.53;;;24.41;95.92
13709;BME280;54933;51.908;7.730;2023-09-12T05:52:10;100581.78;;;24.41;95.52
13709;BME280;54933;51.908;7.730;2023-09-12T05:54:36;100587.19;;;24.41;95.66
13709;BME280;54933;51.908;7.730;2023-09-12T05:57:01;100578.81;;;24.43;95.37
13709;BME280;54933;51.908;7.730;2023-09-12T05:59:27;100569.03;;;24.42;95.28
13709;BME280;54933;51.908;7.730;2023-09-12T06:01:52;100578.81;;;24.43;95.61
13709;BME280;54933;51.908;7.730;2023-09-12T06:04:18;100582.59;;;24.42;95.27
13709;BME280;54933;51.908;7.730;2023-09-12T06:06:43;100594.31;;;24.42;95.28
13709;BME280;54933;51.908;7.730;2023-09-12T06:09:08;100609.53;;;24.43;95.25
13709;BME280;54933;51.908;7.730;2023-09-12T06:11:34;100613.88;;;24.44;95.03
13709;BME280;54933;51.908;7.730;2023-09-12T06:13:59;100616.84;;;24.43;95.08
13709;BME280;54933;51.908;7.730;2023-09-12T06:16:25;100626.66;;;24.44;94.90
13709;BME280;54933;51.908;7.730;2023-09-12T06:18:50;100618.00;;;24.47;95.25
13709;BME280;54933;51.908;7.730;2023-09-12T06:21:16;100612.00;;;24.45;95.17
13709;BME280;54933;51.908;7.730;2023-09-12T06:23:42;100626.41;;;24.45;95.23
13709;BME280;54933;51.908;7.730;2023-09-12T06:26:07;100636.19;;;24.46;95.15
13709;BME280;54933;51.908;7.730;2023-09-12T06:28:32;100676.09;;;24.46;95.41
13709;BME280;54933;51.908;7.730;2023-09-12T06:30:58;100706.81;;;24.46;95.31
13709;BME280;54933;51.908;7.730;2023-09-12T06:33:25;100741.31;;;24.46;95.24
13709;BME280;54933;51.908;7.730;2023-09-12T06:35:51;100774.75;;;24.46;95.26
13709;BME280;54933;51.908;7.730;2023-09-12T06:38:18;100790.19;;;24.46;95.26
13709;BME280;54933;51.908;7.730;2023-09-12T06:40:44;100778.28;;;24.47;95.07
13709;BME280;54933;51.908;7.730;2023-09-12T06:43:09;100737.53;;;24.47;94.96
13709;BME280;54933;51.908;7.730;2023-09-12T06:45:34;100696.78;;;24.47;94.97
13709;BME280;54933;51.908;7.730;2023-09-12T06:48:03;100699.50;;;24.47;94.85
13709;BME280;54933;51.908;7.730;2023-09-12T06:50:28;100690.53;;;24.46;94.53
13709;BME280;54933;51.908;7.730;2023-09-12T06:52:53;100695.72;;;24.48;94.73
13709;BME280;54933;51.908;7.730;2023-09-12T06:55:19;100668.53;;;24.48;94.78
13709;BME280;54933;51.908;7.730;2023-09-12T06:57:44;100656.03;;;24.47;94.88
13709;BME280;54933;51.908;7.730;2023-09-12T07:00:10;100657.69;;;24.48;94.57
13709;BME280;54933;51.908;7.730;2023-09-12T07:02:36;100663.13;;;24.48;94.36
13709;BME280;54933;51.908;7.730;2023-09-12T07:05:01;100668.53;;;24.48;94.68
13709;BME280;54933;51.908;7.730;2023-09-12T07:07:28;100665.81;;;24.48;94.86
13709;BME280;54933;51.908;7.730;2023-09-12T07:09:54;100685.69;;;24.48;94.72
13709;BME280;54933;51.908;7.730;2023-09-12T07:12:19;100691.13;;;24.48;94.49
13709;BME280;54933;51.908;7.730;2023-09-12T07:14:44;100689.22;;;24.49;94.50
13709;BME280;54933;51.908;7.730;2023-09-12T07:17:10;100691.94;;;24.49;94.50
13709;BME280;54933;51.908;7.730;2023-09-12T07:19:35;100696.31;;;24.50;94.16
13709;BME280;54933;51.908;7.730;2023-09-12T07:22:01;100705.53;;;24.49;94.35
13709;BME280;54933;51.908;7.730;2023-09-12T07:24:27;100715.31;;;24.50;94.18
13709;BME280;54933;51.908;7.730;2023-09-12T07:26:52;100735.16;;;24.50;94.29
13709;BME280;54933;51.908;7.730;2023-09-12T07:29:17;100752.53;;;24.49;94.45
13709;BME280;54933;51.908;7.730;2023-09-12T07:31:43;100777.56;;;24.51;94.32
13709;BME280;54933;51.908;7.730;2023-09-12T07:34:08;100796.81;;;24.50;94.51
13709;BME280;54933;51.908;7.730;2023-09-12T07:36:34;100794.81;;;24.45;94.48
13709;BME280;54933;51.908;7.730;2023-09-12T07:38:59;100730.13;;;24.42;94.56
13709;BME280;54933;51.908;7.730;2023-09-12T07:41:25;100719.25;;;24.42;94.56
13709;BME280;54933;51.908;7.730;2023-09-12T07:43:50;100680.38;;;24.42;94.67
13709;BME280;54933;51.908;7.730;2023-09-12T07:46:15;100646.97;;;24.41;94.59
13709;BME280;54933;51.908;7.730;2023-09-12T07:48:41;100649.69;;;24.41;94.74
13709;BME280;54933;51.908;7.730;2023-09-12T07:51:15;100670.34;;;24.42;94.70
13709;BME280;54933;51.908;7.730;2023-09-12T07:53:42;100698.31;;;24.43;94.60
13709;BME280;54933;51.908;7.730;2023-09-12T07:56:09;100721.97;;;24.42;94.70
13709;BME280;54933;51.908;7.730;2023-09-12T07:58:35;100746.41;;;24.42;94.74
13709;BME280;54933;51.908;7.730;2023-09-12T08:01:05;100768.94;;;24.43;94.52
13709;BME280;54933;51.908;7.730;2023-09-12T08:03:30;100771.91;;;24.41;94.42
13709;BME280;54933;51.908;7.730;2023-09-12T08:05:58;100743.94;;;24.41;94.77
13709;BME280;54933;51.908;7.730;2023-09-12T08:08:24;100721.38;;;24.40;94.79
13709;BME280;54933;51.908;7.730;2023-09-12T08:10:49;100712.97;;;24.42;94.67
13709;BME280;54933;51.908;7.730;2023-09-12T08:13:14;100714.63;;;24.43;94.67
13709;BME280;54933;51.908;7.730;2023-09-12T08:15:40;100720.06;;;24.43;94.69
13709;BME280;54933;51.908;7.730;2023-09-12T08:18:05;100702.97;;;24.42;94.59
13709;BME280;54933;51.908;7.730;2023-09-12T08:20:30;100697.53;;;24.42;94.61
13709;BME280;54933;51.908;7.730;2023-09-12T08:22:56;100695.59;;;24.43;94.61
13709;BME280;54933;51.908;7.730;2023-09-12T08:25:21;100697.28;;;24.44;94.49
13709;BME280;54933;51.908;7.730;2023-09-12T08:27:46;100700.00;;;24.44;94.32
13709;BME280;54933;51.908;7.730;2023-09-12T08:30:12;100715.22;;;24.45;94.50
13709;BME280;54933;51.908;7.730;2023-09-12T08:32:39;100714.13;;;24.46;94.40
13709;BME280;54933;51.908;7.730;2023-09-12T08:35:08;100695.13;;;24.46;94.39
13709;BME280;54933;51.908;7.730;2023-09-12T08:37:33;100682.63;;;24.45;94.07
13709;BME280;54933;51.908;7.730;2023-09-12T08:39:59;100697.84;;;24.46;94.12
13709;BME280;54933;51.908;7.730;2023-09-12T08:42:26;100705.19;;;24.45;94.26
13709;BME280;54933;51.908;7.730;2023-09-12T08:44:54;100702.97;;;24.42;94.01
13709;BME280;54933;51.908;7.730;2023-09-12T08:47:22;100718.41;;;24.42;94.33
13709;BME280;54933;51.908;7.730;2023-09-12T08:49:48;100709.19;;;24.43;94.25
13709;BME280;54933;51.908;7.730;2023-09-12T08:52:13;100692.09;;;24.42;94.28
13709;BME280;54933;51.908;7.730;2023-09-12T08:54:38;100690.19;;;24.43;94.25
13709;BME280;54933;51.908;7.730;2023-09-12T08:57:05;100695.59;;;24.43;94.43
13709;BME280;54933;51.908;7.730;2023-09-12T08:59:33;100691.25;;;24.42;94.41
13709;BME280;54933;51.908;7.730;2023-09-12T09:01:59;100695.84;;;24.41;94.22
13709;BME280;54933;51.908;7.730;2023-09-12T09:04:28;100696.69;;;24.42;94.25
13709;BME280;54933;51.908;7.730;2023-09-12T09:06:56;100704.00;;;24.41;94.32
13709;BME280;54933;51.908;7.730;2023-09-12T09:09:22;100703.75;;;24.43;94.54
13709;BME280;54933;51.908;7.730;2023-09-12T09:11:49;100706.72;;;24.41;94.04
13709;BME280;54933;51.908;7.730;2023-09-12T09:14:14;100714.06;;;24.41;94.26
13709;BME280;54933;51.908;7.730;2023-09-12T09:16:39;100711.09;;;24.42;94.44
13709;BME280;54933;51.908;7.730;2023-09-12T09:19:05;100714.63;;;24.43;94.04
13709;BME280;54933;51.908;7.730;2023-09-12T09:21:35;100718.19;;;24.43;94.14
13709;BME280;54933;51.908;7.730;2023-09-12T09:24:07;100729.03;;;24.43;94.10
13709;BME280;54933;51.908;7.730;2023-09-12T09:29:13;100723.38;;;24.45;94.38
13709;BME280;54933;51.908;7.730;2023-09-12T09:31:40;100725.50;;;24.43;94.14
13709;BME280;54933;51.908;7.730;2023-09-12T09:34:11;100723.59;;;24.43;94.25
13709;BME280;54933;51.908;7.730;2023-09-12T09:36:40;100729.88;;;24.44;93.96
13709;BME280;54933;51.908;7.730;2023-09-12T09:39:06;100729.88;;;24.44;94.21
13709;BME280;54933;51.908;7.730;2023-09-12T09:41:32;100729.88;;;24.44;94.10
13709;BME280;54933;51.908;7.730;2023-09-12T09:43:58;100732.59;;;24.44;94.30
13709;BME280;54933;51.908;7.730;2023-09-12T09:46:24;100727.97;;;24.44;94.20
13709;BME280;54933;51.908;7.730;2023-09-12T09:48:50;100733.16;;;24.46;94.23
13709;BME280;54933;51.908;7.730;2023-09-12T09:51:16;100728.78;;;24.45;94.28
13709;BME280;54933;51.908;7.730;2023-09-12T09:53:41;100723.59;;;24.43;94.07
13709;BME280;54933;51.908;7.730;2023-09-12T09:56:13;100730.44;;;24.46;94.01
13709;BME280;54933;51.908;7.730;2023-09-12T09:58:48;100729.38;;;24.47;94.26
13709;BME280;54933;51.908;7.730;2023-09-12T10:01:28;100727.50;;;24.47;94.41
13709;BME280;54933;51.908;7.730;2023-09-12T10:03:59;100730.44;;;24.46;94.28
13709;BME280;54933;51.908;7.730;2023-09-12T10:06:28;100728.31;;;24.48;94.08
13709;BME280;54933;51.908;7.730;2023-09-12T10:08:55;100717.44;;;24.48;94.07
13709;BME280;54933;51.908;7.730;2023-09-12T10:11:23;100717.44;;;24.48;93.97
13709;BME280;54933;51.908;7.730;2023-09-12T10:13:54;100720.16;;;24.48;94.00
13709;BME280;54933;51.908;7.730;2023-09-12T10:16:23;100732.69;;;24.49;93.91
13709;BME280;54933;51.908;7.730;2023-09-12T10:19:08;100730.78;;;24.49;94.04
13709;BME280;54933;51.908;7.730;2023-09-12T10:21:36;100743.31;;;24.50;93.90
13709;BME280;54933;51.908;7.730;2023-09-12T10:24:03;100745.19;;;24.50;93.87
13709;BME280;54933;51.908;7.730;2023-09-12T10:26:31;100756.06;;;24.50;93.90
13709;BME280;54933;51.908;7.730;2023-09-12T10:28:57;100747.91;;;24.50;94.03
13709;BME280;54933;51.908;7.730;2023-09-12T10:31:24;100742.50;;;24.50;93.82
13709;BME280;54933;51.908;7.730;2023-09-12T10:33:50;100745.19;;;24.50;94.03
13709;BME280;54933;51.908;7.730;2023-09-12T10:36:17;100740.84;;;24.49;94.06
13709;BME280;54933;51.908;7.730;2023-09-12T10:38:44;100740.38;;;24.52;94.05
13709;BME280;54933;51.908;7.730;2023-09-12T10:41:11;100738.69;;;24.51;93.99
13709;BME280;54933;51.908;7.730;2023-09-12T10:43:39;100737.88;;;24.50;94.10
13709;BME280;54933;51.908;7.730;2023-09-12T10:46:05;100735.41;;;24.49;94.00
13709;BME280;54933;51.908;7.730;2023-09-12T10:48:32;100734.22;;;24.45;94.26
13709;BME280;54933;51.908;7.730;2023-09-12T10:51:01;100743.47;;;24.44;94.41
13709;BME280;54933;51.908;7.730;2023-09-12T10:53:30;100748.88;;;24.44;94.62
13709;BME280;54933;51.908;7.730;2023-09-12T10:56:20;100746.66;;;24.41;94.82
13709;BME280;54933;51.908;7.730;2023-09-12T11:01:29;100753.13;;;24.40;95.07
13709;BME280;54933;51.908;7.730;2023-09-12T11:03:55;100753.13;;;24.40;95.39
13709;BME280;54933;51.908;7.730;2023-09-12T11:06:30;100753.97;;;24.40;95.38
13709;BME280;54933;51.908;7.730;2023-09-12T11:11:48;100738.50;;;24.41;95.69
13709;BME280;54933;51.908;7.730;2023-09-12T11:14:15;100738.50;;;24.41;95.46
13709;BME280;54933;51.908;7.730;2023-09-12T11:16:41;100738.50;;;24.41;95.41
13709;BME280;54933;51.908;7.730;2023-09-12T11:19:14;100734.72;;;24.42;95.41
13709;BME280;54933;51.908;7.730;2023-09-12T11:21:40;100736.34;;;24.43;95.37
13709;BME280;54933;51.908;7.730;2023-09-12T11:24:06;100736.34;;;24.43;95.35
13709;BME280;54933;51.908;7.730;2023-09-12T11:26:32;100731.75;;;24.43;95.46
13709;BME280;54933;51.908;7.730;2023-09-12T11:29:10;100730.44;;;24.46;95.45
13709;BME280;54933;51.908;7.730;2023-09-12T11:31:36;100729.38;;;24.47;95.48
13709;BME280;54933;51.908;7.730;2023-09-12T11:34:08;100727.72;;;24.46;95.24
13709;BME280;54933;51.908;7.730;2023-09-12T11:36:40;100727.72;;;24.46;95.18
13709;BME280;54933;51.908;7.730;2023-09-12T11:39:22;100721.25;;;24.47;95.08
13709;BME280;54933;51.908;7.730;2023-09-12T11:41:49;100721.25;;;24.47;95.25
13709;BME280;54933;51.908;7.730;2023-09-12T11:44:14;100723.13;;;24.46;95.12
13709;BME280;54933;51.908;7.730;2023-09-12T11:46:41;100726.66;;;24.47;94.97
13709;BME280;54933;51.908;7.730;2023-09-12T11:49:06;100731.03;;;24.48;95.28
13709;BME280;54933;51.908;7.730;2023-09-12T11:51:32;100732.09;;;24.47;94.92
13709;BME280;54933;51.908;7.730;2023-09-12T11:53:57;100726.66;;;24.47;94.77
13709;BME280;54933;51.908;7.730;2023-09-12T11:56:25;100716.63;;;24.47;94.96
13709;BME280;54933;51.908;7.730;2023-09-12T11:58:50;100716.28;;;24.44;94.94
13709;BME280;54933;51.908;7.730;2023-09-12T12:01:15;100718.41;;;24.42;95.17
13709;BME280;54933;51.908;7.730;2023-09-12T12:03:41;100712.97;;;24.42;95.27
13709;BME280;54933;51.908;7.730;2023-09-12T12:06:06;100708.63;;;24.41;95.50
13709;BME280;54933;51.908;7.730;2023-09-12T12:08:32;100695.59;;;24.43;95.25
13709;BME280;54933;51.908;7.730;2023-09-12T12:10:58;100697.84;;;24.46;95.34
13709;BME280;54933;51.908;7.730;2023-09-12T12:13:24;100698.66;;;24.46;94.79
13709;BME280;54933;51.908;7.730;2023-09-12T12:15:50;100695.72;;;24.48;94.97
13709;BME280;54933;51.908;7.730;2023-09-12T12:18:15;100703.06;;;24.47;95.15
13709;BME280;54933;51.908;7.730;2023-09-12T12:20:41;100693.00;;;24.48;95.10
13709;BME280;54933;51.908;7.730;2023-09-12T12:23:07;100686.75;;;24.47;95.08
13709;BME280;54933;51.908;7.730;2023-09-12T12:25:33;100691.13;;;24.48;95.12
13709;BME280;54933;51.908;7.730;2023-09-12T12:27:59;100692.75;;;24.49;94.82
13709;BME280;54933;51.908;7.730;2023-09-12T12:30:25;100699.03;;;24.50;94.97
13709;BME280;54933;51.908;7.730;2023-09-12T12:32:50;100692.75;;;24.49;95.05
13709;BME280;54933;51.908;7.730;2023-09-12T12:35:22;100689.00;;;24.50;94.94
13709;BME280;54933;51.908;7.730;2023-09-12T12:37:49;100680.59;;;24.52;94.74
13709;BME280;54933;51.908;7.730;2023-09-12T12:40:16;100678.91;;;24.51;95.00
13709;BME280;54933;51.908;7.730;2023-09-12T12:42:43;100680.59;;;24.52;94.78
13709;BME280;54933;51.908;7.730;2023-09-12T12:45:16;100680.59;;;24.52;94.62
13709;BME280;54933;51.908;7.730;2023-09-12T12:47:41;100684.94;;;24.53;95.10
13709;BME280;54933;51.908;7.730;2023-09-12T12:50:17;100682.22;;;24.53;94.75
13709;BME280;54933;51.908;7.730;2023-09-12T12:52:47;100676.78;;;24.53;94.73
13709;BME280;54933;51.908;7.730;2023-09-12T12:55:13;100671.38;;;24.53;94.57
13709;BME280;54933;51.908;7.730;2023-09-12T12:57:40;100670.53;;;24.52;94.67